createdAt,value
2022-09-18T00:00:53.379Z,6.64
2022-09-18T00:03:35.538Z,6.67
2022-09-18T00:06:10.880Z,6.69
2022-09-18T00:08:43.707Z,6.68
2022-09-18T00:11:16.946Z,6.68
2022-09-18T00:13:48.515Z,6.69
2022-09-18T00:16:22.080Z,6.71
2022-09-18T00:18:53.234Z,6.74
2022-09-18T00:21:26.097Z,6.77
2022-09-18T00:23:58.640Z,6.79
2022-09-18T00:26:30.508Z,6.82
2022-09-18T00:29:02.016Z,6.85
2022-09-18T00:31:35.078Z,6.89
2022-09-18T00:34:08.931Z,6.93
2022-09-18T00:36:40.552Z,6.95
2022-09-18T00:39:14.783Z,6.99
2022-09-18T00:41:47.029Z,7.03
2022-09-18T00:44:36.432Z,7.08
2022-09-18T00:47:18.054Z,7.12
2022-09-18T00:49:52.732Z,7.16
2022-09-18T00:52:28.083Z,7.20
2022-09-18T00:55:03.549Z,7.22
2022-09-18T00:57:40.532Z,7.25
2022-09-18T01:00:14.994Z,7.27
2022-09-18T01:02:48.699Z,7.28
2022-09-18T01:05:32.472Z,7.29
2022-09-18T01:08:23.842Z,7.30
2022-09-18T01:11:11.142Z,7.30
2022-09-18T01:13:54.411Z,7.30
2022-09-18T01:16:29.783Z,7.30
2022-09-18T01:19:12.213Z,7.31
2022-09-18T01:21:52.124Z,7.31
2022-09-18T01:24:52.689Z,7.31
2022-09-18T01:27:34.474Z,7.31
2022-09-18T01:30:08.336Z,7.32
2022-09-18T01:32:44.943Z,7.32
2022-09-18T01:35:40.396Z,7.33
2022-09-18T01:38:16.974Z,7.33
2022-09-18T01:40:51.699Z,7.33
2022-09-18T01:43:25.782Z,7.31
2022-09-18T01:46:01.647Z,7.30
2022-09-18T01:48:36.723Z,7.30
2022-09-18T01:51:13.531Z,7.28
2022-09-18T01:53:48.255Z,7.26
2022-09-18T01:56:23.265Z,7.24
2022-09-18T01:58:57.270Z,7.22
2022-09-18T02:01:32.262Z,7.22
2022-09-18T02:04:07.500Z,7.22
2022-09-18T02:06:44.553Z,7.21
2022-09-18T02:09:15.984Z,7.21
2022-09-18T02:11:51.342Z,7.22
2022-09-18T02:14:26.975Z,7.23
2022-09-18T02:17:03.828Z,7.21
2022-09-18T02:19:39.530Z,7.20
2022-09-18T02:22:17.508Z,7.20
2022-09-18T02:24:51.516Z,7.18
2022-09-18T02:27:26.452Z,7.16
2022-09-18T02:29:58.038Z,7.15
2022-09-18T02:32:29.321Z,7.13
2022-09-18T02:35:00.578Z,7.12
2022-09-18T02:37:39.399Z,7.11
2022-09-18T02:40:31.641Z,7.11
2022-09-18T02:43:15.946Z,7.10
2022-09-18T02:45:54.586Z,7.11
2022-09-18T02:48:39.617Z,7.12
2022-09-18T02:51:19.838Z,7.13
2022-09-18T02:54:01.729Z,7.14
2022-09-18T02:56:38.620Z,7.15
2022-09-18T02:59:16.608Z,7.16
2022-09-18T03:01:48.619Z,7.18
2022-09-18T03:04:24.938Z,7.19
2022-09-18T03:06:56.606Z,7.19
2022-09-18T03:09:29.994Z,7.20
2022-09-18T03:12:02.097Z,7.19
2022-09-18T03:14:33.263Z,7.21
2022-09-18T03:17:04.462Z,7.21
2022-09-18T03:19:35.289Z,7.20
2022-09-18T03:22:06.292Z,7.20
2022-09-18T03:24:37.220Z,7.20
2022-09-18T03:27:08.131Z,7.19
2022-09-18T03:29:39.088Z,7.23
2022-09-18T03:32:09.891Z,7.25
2022-09-18T03:34:39.497Z,7.24
2022-09-18T03:37:10.606Z,7.23
2022-09-18T03:39:41.476Z,7.23
2022-09-18T03:42:12.437Z,7.23
2022-09-18T03:44:43.832Z,7.22
2022-09-18T03:47:14.878Z,7.21
2022-09-18T03:49:45.851Z,7.19
2022-09-18T03:52:15.468Z,7.16
2022-09-18T03:54:46.174Z,7.13
2022-09-18T03:57:17.111Z,7.10
2022-09-18T03:59:47.954Z,7.08
2022-09-18T04:02:18.932Z,7.07
2022-09-18T04:04:50.062Z,7.05
2022-09-18T04:07:21.303Z,7.05
2022-09-18T04:09:53.164Z,7.03
2022-09-18T04:12:24.973Z,7.03
2022-09-18T04:14:55.965Z,7.02
2022-09-18T04:17:25.396Z,7.00
2022-09-18T04:19:56.580Z,7.00
2022-09-18T04:22:27.766Z,7.00
2022-09-18T04:24:58.675Z,6.99
2022-09-18T04:27:29.812Z,6.98
2022-09-18T04:29:59.123Z,6.98
2022-09-18T04:32:29.995Z,6.96
2022-09-18T04:35:01.122Z,6.97
2022-09-18T04:37:32.167Z,6.97
2022-09-18T04:40:04.002Z,6.97
2022-09-18T04:42:35.436Z,6.96
2022-09-18T04:45:08.685Z,6.98
2022-09-18T04:47:41.067Z,6.99
2022-09-18T04:50:12.347Z,7.01
2022-09-18T04:52:43.409Z,7.01
2022-09-18T04:55:15.568Z,7.02
2022-09-18T04:57:49.130Z,7.03
2022-09-18T05:00:22.395Z,7.04
2022-09-18T05:02:53.871Z,7.06
2022-09-18T05:05:25.112Z,7.06
2022-09-18T05:07:56.071Z,7.08
2022-09-18T05:10:25.743Z,7.10
2022-09-18T05:12:57.006Z,7.12
2022-09-18T05:15:27.983Z,7.15
2022-09-18T05:18:05.642Z,7.20
2022-09-18T05:20:40.180Z,7.24
2022-09-18T05:23:11.222Z,7.27
2022-09-18T05:25:42.862Z,7.29
2022-09-18T05:28:15.687Z,7.32
2022-09-18T05:30:47.023Z,7.33
2022-09-18T05:33:18.437Z,7.32
2022-09-18T05:35:54.609Z,7.29
2022-09-18T05:38:25.668Z,7.24
2022-09-18T05:40:55.038Z,7.20
2022-09-18T05:43:26.148Z,7.16
2022-09-18T05:45:57.995Z,7.15
2022-09-18T05:48:29.031Z,7.13
2022-09-18T05:50:58.880Z,7.12
2022-09-18T05:53:28.409Z,7.09
2022-09-18T05:56:01.915Z,7.05
2022-09-18T05:58:32.840Z,7.03
2022-09-18T06:01:04.742Z,7.02
2022-09-18T06:03:35.927Z,7.02
2022-09-18T06:06:05.787Z,7.03
2022-09-18T06:08:36.161Z,6.99
2022-09-18T06:11:07.567Z,7.02
2022-09-18T06:13:38.760Z,7.03
2022-09-18T06:16:08.257Z,7.03
2022-09-18T06:18:39.253Z,7.03
2022-09-18T06:21:10.384Z,7.02
2022-09-18T06:23:41.564Z,7.00
2022-09-18T06:26:15.173Z,7.00
2022-09-18T06:28:48.057Z,7.00
2022-09-18T06:31:18.905Z,6.98
2022-09-18T06:33:50.120Z,6.96
2022-09-18T06:36:21.133Z,6.94
2022-09-18T06:38:53.783Z,6.94
2022-09-18T06:41:26.372Z,6.94
2022-09-18T06:43:57.340Z,6.95
2022-09-18T06:46:28.562Z,6.95
2022-09-18T06:48:59.968Z,6.97
2022-09-18T06:51:31.199Z,6.97
2022-09-18T06:54:02.100Z,6.99
2022-09-18T06:56:31.548Z,7.01
2022-09-18T06:59:02.367Z,7.03
2022-09-18T07:01:33.289Z,7.08
2022-09-18T07:04:05.139Z,7.13
2022-09-18T07:06:36.093Z,7.17
2022-09-18T07:09:07.111Z,7.22
2022-09-18T07:11:37.235Z,7.28
2022-09-18T07:14:09.418Z,7.32
2022-09-18T07:16:40.312Z,7.39
2022-09-18T07:19:11.491Z,7.48
2022-09-18T07:21:40.734Z,7.55
2022-09-18T07:24:12.194Z,7.61
2022-09-18T07:26:43.125Z,7.68
2022-09-18T07:29:14.136Z,7.71
2022-09-18T07:31:44.866Z,7.78
2022-09-18T07:34:16.456Z,7.82
2022-09-18T07:36:49.998Z,7.87
2022-09-18T07:39:20.968Z,7.89
2022-09-18T07:41:50.456Z,7.91
2022-09-18T07:44:21.165Z,7.95
2022-09-18T07:46:55.593Z,7.98
2022-09-18T07:49:26.847Z,8.02
2022-09-18T07:51:56.272Z,8.06
2022-09-18T07:54:27.365Z,8.09
2022-09-18T07:56:58.165Z,8.14
2022-09-18T07:59:28.993Z,8.21
2022-09-18T08:02:00.017Z,8.31
2022-09-18T08:04:30.852Z,8.37
2022-09-18T08:07:04.357Z,8.41
2022-09-18T08:09:35.493Z,8.44
2022-09-18T08:12:06.687Z,8.45
2022-09-18T08:14:37.861Z,8.46
2022-09-18T08:17:09.265Z,8.46
2022-09-18T08:19:40.286Z,8.46
2022-09-18T08:22:11.374Z,8.49
2022-09-18T08:24:40.856Z,8.55
2022-09-18T08:27:11.976Z,8.58
2022-09-18T08:29:43.851Z,8.62
2022-09-18T08:32:16.143Z,8.63
2022-09-18T08:34:47.049Z,8.64
2022-09-18T08:37:18.204Z,8.66
2022-09-18T08:39:49.451Z,8.70
2022-09-18T08:42:25.927Z,8.72
2022-09-18T08:45:00.983Z,8.74
2022-09-18T08:47:37.138Z,8.78
2022-09-18T08:50:16.574Z,8.82
2022-09-18T08:52:52.412Z,8.89
2022-09-18T08:55:30.047Z,9.01
2022-09-18T08:58:07.551Z,9.12
2022-09-18T09:00:42.700Z,9.24
2022-09-18T09:03:27.396Z,9.35
2022-09-18T09:06:01.726Z,9.45
2022-09-18T09:09:08.629Z,9.56
2022-09-18T09:11:51.799Z,9.66
2022-09-18T09:14:55.349Z,9.70
2022-09-18T09:17:32.893Z,9.74
2022-09-18T09:20:12.183Z,9.71
2022-09-18T09:22:52.572Z,9.71
2022-09-18T09:25:28.594Z,9.75
2022-09-18T09:28:09.954Z,9.74
2022-09-18T09:30:45.866Z,9.76
2022-09-18T09:33:22.843Z,9.76
2022-09-18T09:35:56.932Z,9.80
2022-09-18T09:38:43.327Z,9.83
2022-09-18T09:41:22.222Z,9.91
2022-09-18T09:44:03.551Z,9.94
2022-09-18T09:46:48.837Z,9.98
2022-09-18T09:49:24.353Z,9.95
2022-09-18T09:52:08.805Z,9.97
2022-09-18T09:54:40.041Z,10.01
2022-09-18T09:57:17.602Z,10.04
2022-09-18T09:59:57.009Z,10.06
2022-09-18T10:02:41.152Z,10.09
2022-09-18T10:05:24.973Z,10.09
2022-09-18T10:07:57.827Z,10.10
2022-09-18T10:10:36.495Z,10.05
2022-09-18T10:13:13.336Z,10.03
2022-09-18T10:15:46.942Z,10.05
2022-09-18T10:18:23.021Z,10.15
2022-09-18T10:20:57.951Z,10.22
2022-09-18T10:23:35.196Z,10.19
2022-09-18T10:26:06.683Z,10.11
2022-09-18T10:28:37.690Z,10.08
2022-09-18T10:31:09.558Z,10.09
2022-09-18T10:33:43.387Z,10.13
2022-09-18T10:36:24.581Z,10.21
2022-09-18T10:38:55.688Z,10.26
2022-09-18T10:41:34.940Z,10.29
2022-09-18T10:44:21.335Z,10.33
2022-09-18T10:46:59.413Z,10.34
2022-09-18T10:49:32.997Z,10.32
2022-09-18T10:52:35.915Z,10.42
2022-09-18T10:55:18.478Z,10.59
2022-09-18T10:58:06.204Z,10.76
2022-09-18T11:00:41.507Z,10.88
2022-09-18T11:03:25.159Z,10.98
2022-09-18T11:05:59.379Z,11.04
2022-09-18T11:08:34.471Z,10.98
2022-09-18T11:11:07.834Z,10.80
2022-09-18T11:13:51.740Z,10.66
2022-09-18T11:16:28.676Z,10.58
2022-09-18T11:19:16.167Z,10.58
2022-09-18T11:21:55.259Z,10.66
2022-09-18T11:24:28.852Z,10.71
2022-09-18T11:27:01.552Z,10.79
2022-09-18T11:29:34.987Z,10.96
2022-09-18T11:32:16.924Z,11.11
2022-09-18T11:34:51.313Z,11.21
2022-09-18T11:37:35.229Z,11.31
2022-09-18T11:40:10.071Z,11.32
2022-09-18T11:42:47.072Z,11.29
2022-09-18T11:45:41.920Z,11.32
2022-09-18T11:48:28.333Z,11.38
2022-09-18T11:51:02.236Z,11.41
2022-09-18T11:53:38.950Z,11.47
2022-09-18T11:56:13.795Z,11.48
2022-09-18T11:58:50.036Z,11.38
2022-09-18T12:01:29.584Z,11.26
2022-09-18T12:04:14.432Z,11.14
2022-09-18T12:06:53.689Z,11.06
2022-09-18T12:09:29.721Z,11.08
2022-09-18T12:12:07.828Z,11.14
2022-09-18T12:14:46.083Z,11.21
2022-09-18T12:17:23.857Z,11.25
2022-09-18T12:20:00.014Z,11.35
2022-09-18T12:22:34.437Z,11.50
2022-09-18T12:25:14.708Z,11.66
2022-09-18T12:27:55.384Z,11.75
2022-09-18T12:30:35.774Z,11.74
2022-09-18T12:33:25.673Z,11.69
2022-09-18T12:36:27.233Z,11.67
2022-09-18T12:39:13.100Z,11.69
2022-09-18T12:41:56.791Z,11.75
2022-09-18T12:44:49.594Z,11.83
2022-09-18T12:47:40.359Z,11.93
2022-09-18T12:50:27.230Z,12.05
2022-09-18T12:53:09.807Z,12.16
2022-09-18T12:55:58.885Z,12.32
2022-09-18T12:58:46.687Z,12.29
2022-09-18T13:01:28.021Z,12.23
2022-09-18T13:04:07.460Z,12.26
2022-09-18T13:06:46.009Z,12.23
2022-09-18T13:09:25.655Z,12.20
2022-09-18T13:12:01.401Z,12.26
2022-09-18T13:14:39.296Z,12.39
2022-09-18T13:17:15.661Z,12.52
2022-09-18T13:19:54.453Z,12.53
2022-09-18T13:22:29.536Z,12.53
2022-09-18T13:25:01.418Z,12.54
2022-09-18T13:27:34.069Z,12.55
2022-09-18T13:30:17.704Z,12.55
2022-09-18T13:32:49.093Z,12.52
2022-09-18T13:35:30.080Z,12.55
2022-09-18T13:38:17.044Z,12.62
2022-09-18T13:40:50.572Z,12.65
2022-09-18T13:43:40.947Z,12.61
2022-09-18T13:46:32.654Z,12.52
2022-09-18T13:49:20.554Z,12.40
2022-09-18T13:51:51.567Z,12.23
2022-09-18T13:54:29.127Z,12.06
2022-09-18T13:57:21.667Z,11.78
2022-09-18T13:59:55.615Z,11.51
2022-09-18T14:02:35.926Z,11.30
2022-09-18T14:05:31.049Z,11.08
2022-09-18T14:08:15.513Z,10.91
2022-09-18T14:11:16.756Z,10.83
2022-09-18T14:13:54.269Z,10.82
2022-09-18T14:16:34.527Z,10.89
2022-09-18T14:19:16.003Z,10.98
2022-09-18T14:21:47.375Z,11.12
2022-09-18T14:24:55.165Z,11.18
2022-09-18T14:27:34.467Z,11.17
2022-09-18T14:30:16.707Z,11.11
2022-09-18T14:32:58.238Z,11.04
2022-09-18T14:35:36.782Z,10.94
2022-09-18T14:38:25.860Z,10.77
2022-09-18T14:41:00.958Z,10.65
2022-09-18T14:43:31.837Z,10.61
2022-09-18T14:46:01.298Z,10.89
2022-09-18T14:48:36.855Z,11.31
2022-09-18T14:51:18.044Z,11.56
2022-09-18T14:53:51.247Z,11.50
2022-09-18T14:56:28.716Z,11.42
2022-09-18T14:59:04.295Z,11.38
2022-09-18T15:01:37.267Z,11.32
2022-09-18T15:04:14.810Z,11.26
2022-09-18T15:06:50.907Z,11.26
2022-09-18T15:09:28.661Z,11.28
2022-09-18T15:12:02.871Z,11.28
2022-09-18T15:14:44.063Z,11.27
2022-09-18T15:17:22.306Z,11.27
2022-09-18T15:20:01.245Z,11.24
2022-09-18T15:22:32.534Z,11.16
2022-09-18T15:25:03.907Z,11.12
2022-09-18T15:27:36.053Z,11.09
2022-09-18T15:30:09.745Z,11.03
2022-09-18T15:32:46.952Z,10.95
2022-09-18T15:35:23.813Z,10.86
2022-09-18T15:38:02.560Z,10.77
2022-09-18T15:40:37.098Z,10.65
2022-09-18T15:43:27.832Z,10.51
2022-09-18T15:46:07.120Z,10.36
2022-09-18T15:48:44.105Z,10.22
2022-09-18T15:51:19.291Z,10.06
2022-09-18T15:54:24.073Z,9.92
2022-09-18T15:56:56.909Z,9.84
2022-09-18T15:59:37.977Z,9.82
2022-09-18T16:02:27.883Z,9.83
2022-09-18T16:05:07.671Z,9.85
2022-09-18T16:07:39.255Z,9.87
2022-09-18T16:10:48.939Z,9.82
2022-09-18T16:13:38.312Z,9.75
2022-09-18T16:16:24.984Z,9.72
2022-09-18T16:18:59.546Z,9.74
2022-09-18T16:21:31.397Z,9.75
2022-09-18T16:24:03.606Z,9.75
2022-09-18T16:26:37.546Z,9.77
2022-09-18T16:29:21.021Z,9.76
2022-09-18T16:31:52.119Z,9.78
2022-09-18T16:34:25.932Z,9.78
2022-09-18T16:36:57.447Z,9.76
2022-09-18T16:39:29.366Z,9.76
2022-09-18T16:42:00.876Z,9.76
2022-09-18T16:44:31.764Z,9.77
2022-09-18T16:47:07.782Z,9.77
2022-09-18T16:49:43.269Z,9.72
2022-09-18T16:52:14.962Z,9.66
2022-09-18T16:54:46.009Z,9.63
2022-09-18T16:57:20.456Z,9.60
2022-09-18T16:59:52.619Z,9.60
2022-09-18T17:02:26.065Z,9.60
2022-09-18T17:04:57.095Z,9.59
2022-09-18T17:07:28.070Z,9.56
2022-09-18T17:10:02.339Z,9.57
2022-09-18T17:12:33.317Z,9.59
2022-09-18T17:15:04.973Z,9.60
2022-09-18T17:17:36.328Z,9.60
2022-09-18T17:20:09.809Z,9.57
2022-09-18T17:22:40.957Z,9.51
2022-09-18T17:25:11.634Z,9.43
2022-09-18T17:27:43.996Z,9.30
2022-09-18T17:30:15.994Z,9.18
2022-09-18T17:32:47.329Z,9.07
2022-09-18T17:35:18.928Z,8.99
2022-09-18T17:37:51.697Z,8.93
2022-09-18T17:40:22.732Z,8.88
2022-09-18T17:42:53.941Z,8.84
2022-09-18T17:45:24.755Z,8.79
2022-09-18T17:47:55.823Z,8.75
2022-09-18T17:50:26.812Z,8.72
2022-09-18T17:52:57.905Z,8.70
2022-09-18T17:55:28.482Z,8.68
2022-09-18T17:57:59.345Z,8.64
2022-09-18T18:00:30.356Z,8.62
2022-09-18T18:03:01.258Z,8.61
2022-09-18T18:05:32.099Z,8.59
2022-09-18T18:08:03.146Z,8.56
2022-09-18T18:10:36.515Z,8.54
2022-09-18T18:13:07.549Z,8.53
2022-09-18T18:15:38.663Z,8.53
2022-09-18T18:18:09.944Z,8.50
2022-09-18T18:20:40.242Z,8.49
2022-09-18T18:23:14.296Z,8.46
2022-09-18T18:25:45.349Z,8.44
2022-09-18T18:28:14.680Z,8.38
2022-09-18T18:30:47.809Z,8.28
2022-09-18T18:33:18.802Z,8.20
2022-09-18T18:35:49.618Z,8.13
2022-09-18T18:38:20.733Z,8.07
2022-09-18T18:40:52.262Z,8.02
2022-09-18T18:43:23.666Z,7.96
2022-09-18T18:45:56.494Z,7.93
2022-09-18T18:48:27.649Z,7.90
2022-09-18T18:50:59.728Z,7.86
2022-09-18T18:53:31.487Z,7.80
2022-09-18T18:56:05.527Z,7.75
2022-09-18T18:58:36.807Z,7.71
2022-09-18T19:01:09.503Z,7.67
2022-09-18T19:03:43.047Z,7.65
2022-09-18T19:06:15.589Z,7.63
2022-09-18T19:08:47.772Z,7.60
2022-09-18T19:11:19.741Z,7.60
2022-09-18T19:13:54.129Z,7.62
2022-09-18T19:16:26.510Z,7.63
2022-09-18T19:19:00.332Z,7.65
2022-09-18T19:21:31.382Z,7.69
2022-09-18T19:24:02.731Z,7.73
2022-09-18T19:26:33.879Z,7.76
2022-09-18T19:29:05.618Z,7.80
2022-09-18T19:31:38.205Z,7.78
2022-09-18T19:34:11.906Z,7.78
2022-09-18T19:36:43.159Z,7.78
2022-09-18T19:39:15.940Z,7.80
2022-09-18T19:41:52.515Z,7.81
2022-09-18T19:44:31.282Z,7.83
2022-09-18T19:47:05.962Z,7.83
2022-09-18T19:49:39.672Z,7.82
2022-09-18T19:52:18.138Z,7.81
2022-09-18T19:54:51.070Z,7.82
2022-09-18T19:57:23.442Z,7.85
2022-09-18T19:59:57.005Z,7.87
2022-09-18T20:02:28.201Z,7.88
2022-09-18T20:04:59.151Z,7.85
2022-09-18T20:07:30.149Z,7.88
2022-09-18T20:10:01.081Z,7.91
2022-09-18T20:12:35.492Z,7.93
2022-09-18T20:15:09.506Z,7.94
2022-09-18T20:17:41.218Z,7.93
2022-09-18T20:20:16.478Z,7.90
2022-09-18T20:22:47.650Z,7.90
2022-09-18T20:25:19.019Z,7.91
2022-09-18T20:27:50.372Z,7.93
2022-09-18T20:30:21.525Z,7.94
2022-09-18T20:32:50.665Z,7.94
2022-09-18T20:35:21.787Z,7.93
2022-09-18T20:37:53.343Z,7.93
2022-09-18T20:40:24.548Z,7.95
2022-09-18T20:42:56.203Z,7.94
2022-09-18T20:45:28.098Z,7.92
2022-09-18T20:48:06.475Z,7.88
2022-09-18T20:50:38.966Z,7.84
2022-09-18T20:53:09.916Z,7.81
2022-09-18T20:55:39.217Z,7.78
2022-09-18T20:58:10.650Z,7.74
2022-09-18T21:00:41.666Z,7.70
2022-09-18T21:03:13.676Z,7.66
2022-09-18T21:05:45.719Z,7.61
2022-09-18T21:08:16.784Z,7.57
2022-09-18T21:10:47.824Z,7.55
2022-09-18T21:13:20.148Z,7.53
2022-09-18T21:15:51.337Z,7.51
2022-09-18T21:18:23.994Z,7.49
2022-09-18T21:21:03.931Z,7.49
2022-09-18T21:23:52.665Z,7.47
2022-09-18T21:26:25.763Z,7.45
2022-09-18T21:28:58.927Z,7.43
2022-09-18T21:31:30.807Z,7.43
2022-09-18T21:34:03.924Z,7.44
2022-09-18T21:36:38.634Z,7.43
2022-09-18T21:39:11.135Z,7.42
2022-09-18T21:41:46.553Z,7.42
2022-09-18T21:44:24.762Z,7.41
2022-09-18T21:46:56.699Z,7.39
2022-09-18T21:49:29.190Z,7.38
2022-09-18T21:52:02.027Z,7.37
2022-09-18T21:54:34.142Z,7.33
2022-09-18T21:57:05.795Z,7.33
2022-09-18T21:59:37.671Z,7.32
2022-09-18T22:02:10.062Z,7.30
2022-09-18T22:04:41.978Z,7.30
2022-09-18T22:07:13.211Z,7.29
2022-09-18T22:09:44.285Z,7.29
2022-09-18T22:12:14.179Z,7.27
2022-09-18T22:14:45.371Z,7.23
2022-09-18T22:17:16.503Z,7.20
2022-09-18T22:19:47.879Z,7.16
2022-09-18T22:22:19.502Z,7.12
2022-09-18T22:24:50.687Z,7.06
2022-09-18T22:27:21.762Z,7.03
2022-09-18T22:29:51.461Z,7.01
2022-09-18T22:32:24.245Z,6.98
2022-09-18T22:34:55.951Z,6.99
2022-09-18T22:37:26.864Z,7.01
2022-09-18T22:39:57.834Z,7.04
2022-09-18T22:42:28.823Z,7.08
2022-09-18T22:44:58.234Z,7.11
2022-09-18T22:47:29.165Z,7.13
2022-09-18T22:50:00.174Z,7.16
2022-09-18T22:52:29.581Z,7.19
2022-09-18T22:55:00.630Z,7.19
2022-09-18T22:57:32.315Z,7.20
2022-09-18T23:00:03.644Z,7.22
2022-09-18T23:02:34.545Z,7.26
2022-09-18T23:05:06.348Z,7.27
2022-09-18T23:07:38.923Z,7.27
2022-09-18T23:10:12.189Z,7.27
2022-09-18T23:12:42.912Z,7.26
2022-09-18T23:15:14.063Z,7.27
2022-09-18T23:17:45.272Z,7.29
2022-09-18T23:20:16.432Z,7.32
2022-09-18T23:22:47.846Z,7.33
2022-09-18T23:25:18.951Z,7.34
2022-09-18T23:27:50.052Z,7.36
2022-09-18T23:30:21.600Z,7.37
2022-09-18T23:32:52.592Z,7.37
2022-09-18T23:35:23.465Z,7.37
2022-09-18T23:37:52.802Z,7.35
2022-09-18T23:40:23.666Z,7.34
2022-09-18T23:42:54.494Z,7.32
2022-09-18T23:45:25.345Z,7.28
2022-09-18T23:47:56.197Z,7.30
2022-09-18T23:50:26.959Z,7.31
2022-09-18T23:52:58.642Z,7.35
2022-09-18T23:55:31.097Z,7.35
2022-09-18T23:58:01.956Z,7.35
